Terminal Aerodrome Forecast
Issued by NWS

Home | Current Version | Previous Version | Graphics & Text | Print | Product List | Glossary On
Versions: 1 2 3 4 5 6 7 8 9 10 11 12 13 14 15 16 17 18 19 20 21 22 23 24 25 26 27 28 29 30 31 32 33 34 35 36 37
000
FTUS43 KLOT 191600 AAB
TAFORD
TAF AMD
KORD 191601Z 1916/2018 23012G19KT P6SM BKN025 BKN035 BKN250
     FM191700 24012G20KT P6SM VCTS SCT025CB BKN035 BKN070
     FM191900 27012G20KT P6SM BKN040
     FM200100 29006KT P6SM SCT040
     FM200700 VRB03KT 4SM BR SCT250
     FM201400 28007KT P6SM SCT250=

USA.gov is the U.S. government's official web portal to all federal, state and local government web resources and services.